Time;durP1;ratioP1;P1;durP2;ratioP2;P2;SDS_P1;SDS_P2;PMS_P1;PMS_P2;Temp;Humidity;BMP_temperature;BMP_pressure;BME280_temperature;BME280_humidity;BME280_pressure;Samples;Min_cycle;Max_cycle;Signal;HPM_P1;HPM_P2
2021/01/10 00:01:19;;;;;;;;;;;;;;;1.72;71.90;98687.52;1741659;82;24986;-85
2021/01/10 00:04:05;;;;;;;;;;;;;;;1.69;71.92;98685.05;1743574;81;22859;-85
2021/01/10 00:06:54;;;;;;;;;;;;;;;1.66;71.95;98688.99;1745757;81;27162;-85
2021/01/10 00:09:40;;;;;;;;;;;;;;;1.63;71.96;98685.23;1741783;82;25474;-85
2021/01/10 00:12:26;;;;;;;;;;;;;;;1.56;71.95;98683.71;1740264;82;20267;-85
2021/01/10 00:15:12;;;;;;;;;;;;;;;1.48;71.99;98687.80;1743675;82;24642;-85
2021/01/10 00:17:58;;;;;;;;;;;;;;;1.40;71.98;98688.92;1745657;82;22183;-86
2021/01/10 00:20:44;;;;;;;;;;;;;;;1.35;71.98;98695.51;1743325;82;26190;-85
2021/01/10 00:23:30;;;;;;;;;;;;;;;1.24;71.96;98694.52;1742201;81;24625;-85
2021/01/10 00:26:16;;;;;;;;;;;;;;;1.18;71.98;98694.69;1742502;82;20281;-85
2021/01/10 00:29:02;;;;;;;;;;;;;;;1.13;71.96;98697.00;1743706;82;24789;-85
2021/01/10 00:31:47;;;;;;;;;;;;;;;1.10;71.96;98693.20;1719628;80;22121;-85
2021/01/10 00:34:35;;;;;;;;;;;;;;;1.04;71.98;98700.66;1662648;85;26243;-85
2021/01/10 00:37:21;;;;;;;;;;;;;;;1.05;71.98;98704.93;1668257;85;24732;-85
2021/01/10 00:40:07;;;;;;;;;;;;;;;1.10;72.03;98710.80;1630661;87;20277;-85
2021/01/10 00:42:53;;;;;;;;;;;;;;;1.21;72.05;98707.92;1668511;85;24778;-85
2021/01/10 00:45:39;;;;;;;;;;;;;;;1.25;72.10;98701.81;1634609;87;22147;-85
2021/01/10 00:48:25;;;;;;;;;;;;;;;1.22;72.11;98709.18;1671291;85;26382;-85
2021/01/10 00:51:12;;;;;;;;;;;;;;;1.42;72.15;98710.36;1642422;85;24603;-85
2021/01/10 00:53:58;;;;;;;;;;;;;;;1.61;72.19;98714.08;1668857;85;20302;-85
2021/01/10 00:56:44;;;;;;;;;;;;;;;1.78;72.22;98718.73;1670882;85;24674;-85
2021/01/10 00:59:30;;;;;;;;;;;;;;;1.90;72.26;98720.95;1633310;87;23248;-84
2021/01/10 01:02:16;;;;;;;;;;;;;;;1.96;72.26;98725.94;1661832;84;26315;-84
2021/01/10 01:05:02;;;;;;;;;;;;;;;1.99;72.25;98727.11;1633515;87;24646;-84
2021/01/10 01:07:48;;;;;;;;;;;;;;;1.92;72.26;98716.57;1642162;87;20254;-84
2021/01/10 01:10:35;;;;;;;;;;;;;;;1.83;72.27;98729.77;1701391;83;24705;-84
2021/01/10 01:13:22;;;;;;;;;;;;;;;1.64;72.24;98726.43;1702651;83;22219;-85
2021/01/10 01:16:08;;;;;;;;;;;;;;;1.61;72.20;98732.13;1699340;84;26300;-85
2021/01/10 01:18:54;;;;;;;;;;;;;;;1.62;72.17;98729.96;1701205;84;24584;-85
2021/01/10 01:21:40;;;;;;;;;;;;;;;1.63;72.16;98733.80;1701906;84;20277;-85
2021/01/10 01:24:27;;;;;;;;;;;;;;;1.63;72.15;98729.92;1623205;86;24424;-84
2021/01/10 01:27:13;;;;;;;;;;;;;;;1.73;72.13;98727.06;1700334;84;21364;-84
2021/01/10 01:29:58;;;;;;;;;;;;;;;1.79;72.12;98732.89;1703113;84;26297;-84
2021/01/10 01:32:44;;;;;;;;;;;;;;;1.79;72.11;98728.17;1718990;80;24649;-84
2021/01/10 01:35:31;;;;;;;;;;;;;;;1.76;72.10;98727.80;1693784;84;20277;-84
2021/01/10 01:38:17;;;;;;;;;;;;;;;1.75;72.07;98727.84;1666971;85;25486;-85
2021/01/10 01:41:03;;;;;;;;;;;;;;;1.79;72.06;98723.86;1697351;84;22132;-84
2021/01/10 01:43:49;;;;;;;;;;;;;;;1.82;72.05;98723.76;1669340;84;26551;-84
2021/01/10 01:46:35;;;;;;;;;;;;;;;1.86;72.06;98727.08;1666762;85;25383;-85
2021/01/10 01:49:22;;;;;;;;;;;;;;;1.91;72.08;98721.36;1675232;85;20379;-84
2021/01/10 01:52:08;;;;;;;;;;;;;;;1.95;72.09;98721.22;1661725;85;25684;-85
2021/01/10 01:54:54;;;;;;;;;;;;;;;1.95;72.09;98724.23;1663354;85;22157;-85
2021/01/10 01:57:40;;;;;;;;;;;;;;;1.93;72.09;98724.28;1667236;85;26161;-84
2021/01/10 02:00:26;;;;;;;;;;;;;;;1.85;72.09;98722.39;1665669;85;24727;-84
2021/01/10 02:03:12;;;;;;;;;;;;;;;1.74;72.05;98715.86;1671429;85;20366;-84
2021/01/10 02:05:59;;;;;;;;;;;;;;;1.68;72.03;98708.70;1664990;85;24760;-85
2021/01/10 02:08:45;;;;;;;;;;;;;;;1.77;71.99;98715.75;1659619;85;22201;-85
2021/01/10 02:11:34;;;;;;;;;;;;;;;1.80;71.99;98715.20;1667424;85;26147;-85
2021/01/10 02:14:21;;;;;;;;;;;;;;;1.75;71.99;98711.92;1672180;85;24737;-85
2021/01/10 02:17:11;;;;;;;;;;;;;;;1.67;72.00;98711.33;1663372;85;20607;-85
2021/01/10 02:19:57;;;;;;;;;;;;;;;1.56;72.01;98715.95;1667673;85;24644;-85
2021/01/10 02:22:44;;;;;;;;;;;;;;;1.45;71.99;98720.57;1662973;85;23006;-84
2021/01/10 02:25:30;;;;;;;;;;;;;;;1.40;71.99;98722.00;1672699;85;27008;-84
2021/01/10 02:28:16;;;;;;;;;;;;;;;1.37;72.00;98721.22;1663149;85;25483;-85
2021/01/10 02:31:02;;;;;;;;;;;;;;;1.31;72.01;98722.23;1665554;85;20465;-85
2021/01/10 02:33:48;;;;;;;;;;;;;;;1.45;72.01;98719.28;1673773;85;24713;-84
2021/01/10 02:36:35;;;;;;;;;;;;;;;1.44;72.02;98715.01;1678115;85;21568;-84
2021/01/10 02:39:21;;;;;;;;;;;;;;;1.30;72.04;98715.86;1676077;85;26185;-84
2021/01/10 02:42:07;;;;;;;;;;;;;;;1.37;72.04;98719.49;1701354;83;24634;-84
2021/01/10 02:44:54;;;;;;;;;;;;;;;1.55;72.06;98723.28;1673563;85;20268;-85
2021/01/10 02:47:41;;;;;;;;;;;;;;;1.69;72.10;98720.69;1683330;83;24860;-84
2021/01/10 02:50:29;;;;;;;;;;;;;;;1.81;72.15;98721.21;1705910;83;22031;-84
2021/01/10 02:53:15;;;;;;;;;;;;;;;1.87;72.17;98721.88;1676543;85;26144;-84
2021/01/10 02:56:02;;;;;;;;;;;;;;;1.89;72.21;98723.13;1647101;86;24934;-84
2021/01/10 02:58:48;;;;;;;;;;;;;;;1.91;72.21;98719.59;1704686;83;20294;-84
2021/01/10 03:01:38;;;;;;;;;;;;;;;1.89;72.23;98720.11;1673269;85;24702;-84
2021/01/10 03:04:24;;;;;;;;;;;;;;;1.86;72.22;98723.20;1665970;84;22225;-84
2021/01/10 03:07:10;;;;;;;;;;;;;;;1.90;72.23;98714.06;1672661;85;26103;-84
2021/01/10 03:09:57;;;;;;;;;;;;;;;1.96;72.24;98719.04;1672927;85;24820;-84
2021/01/10 03:12:43;;;;;;;;;;;;;;;1.99;72.24;98712.48;1668817;85;20343;-84
2021/01/10 03:15:29;;;;;;;;;;;;;;;1.93;72.22;98711.38;1662648;85;24745;-85
2021/01/10 03:18:15;;;;;;;;;;;;;;;1.85;72.19;98714.65;1666993;85;22277;-85
2021/01/10 03:21:01;;;;;;;;;;;;;;;1.83;72.15;98711.26;1670361;85;26228;-85
2021/01/10 03:23:47;;;;;;;;;;;;;;;1.82;72.13;98713.87;1671689;85;24678;-85
2021/01/10 03:26:33;;;;;;;;;;;;;;;1.83;72.11;98710.41;1668198;85;20318;-84
2021/01/10 03:29:20;;;;;;;;;;;;;;;1.61;72.09;98712.34;1662746;85;23313;-85
2021/01/10 03:32:06;;;;;;;;;;;;;;;1.65;72.08;98713.94;1666850;85;22147;-85
2021/01/10 03:34:53;;;;;;;;;;;;;;;1.68;72.07;98710.00;1678169;85;25492;-85
2021/01/10 03:37:27;;;;;;;;;;;;;;;1.60;72.07;98709.36;1680806;85;24573;-85
2021/01/10 03:40:14;;;;;;;;;;;;;;;1.38;72.05;98706.16;1678964;85;20519;-85
2021/01/10 03:42:59;;;;;;;;;;;;;;;1.21;72.04;98706.19;1677260;85;24791;-85
2021/01/10 03:45:46;;;;;;;;;;;;;;;1.06;72.00;98710.48;1675027;85;21976;-85
2021/01/10 03:48:32;;;;;;;;;;;;;;;1.08;71.98;98713.88;1677355;85;26216;-85
2021/01/10 03:51:20;;;;;;;;;;;;;;;1.09;71.97;98716.02;1673469;85;24717;-85
2021/01/10 03:54:05;;;;;;;;;;;;;;;1.01;71.99;98716.22;1673159;85;20455;-85
2021/01/10 03:56:51;;;;;;;;;;;;;;;1.12;72.01;98716.77;1677984;85;24699;-85
2021/01/10 03:59:37;;;;;;;;;;;;;;;1.17;72.03;98705.88;1681543;85;22212;-85
2021/01/10 04:02:24;;;;;;;;;;;;;;;1.09;72.05;98709.10;1674882;85;26346;-85
2021/01/10 04:05:10;;;;;;;;;;;;;;;0.94;72.06;98702.23;1679370;85;25662;-85
2021/01/10 04:07:57;;;;;;;;;;;;;;;0.93;72.07;98702.67;1678116;85;20477;-85
2021/01/10 04:10:42;;;;;;;;;;;;;;;0.89;72.10;98707.95;1678711;83;24772;-85
2021/01/10 04:13:29;;;;;;;;;;;;;;;0.76;72.10;98707.46;1669173;85;22209;-85
2021/01/10 04:16:15;;;;;;;;;;;;;;;0.64;72.10;98700.05;1681693;85;27071;-85
2021/01/10 04:19:05;;;;;;;;;;;;;;;0.54;72.08;98698.59;1678307;85;24875;-85
2021/01/10 04:21:50;;;;;;;;;;;;;;;0.45;72.08;98700.09;1671605;85;20294;-85
2021/01/10 04:24:36;;;;;;;;;;;;;;;0.38;72.10;98696.38;1679190;85;24693;-85
2021/01/10 04:27:22;;;;;;;;;;;;;;;0.50;72.09;98692.66;1678344;85;22039;-85
2021/01/10 04:30:10;;;;;;;;;;;;;;;0.65;72.12;98701.30;1677381;84;26127;-85
2021/01/10 04:32:55;;;;;;;;;;;;;;;0.57;72.15;98703.22;1672975;85;24608;-85
2021/01/10 04:35:41;;;;;;;;;;;;;;;0.42;72.14;98708.75;1671754;85;20303;-84
2021/01/10 04:38:27;;;;;;;;;;;;;;;0.45;72.15;98707.38;1674180;82;24707;-84
2021/01/10 04:41:13;;;;;;;;;;;;;;;0.45;72.15;98720.69;1665549;85;22952;-85
2021/01/10 04:43:58;;;;;;;;;;;;;;;0.40;72.16;98717.80;1669577;85;26942;-84
2021/01/10 04:46:45;;;;;;;;;;;;;;;0.39;72.19;98718.67;1711132;82;24638;-85
2021/01/10 04:49:32;;;;;;;;;;;;;;;0.47;72.20;98720.22;1705354;82;20627;-84
2021/01/10 04:52:18;;;;;;;;;;;;;;;0.48;72.23;98721.48;1697334;82;25800;-85
2021/01/10 04:55:04;;;;;;;;;;;;;;;0.47;72.28;98727.95;1669214;84;22207;-85
2021/01/10 04:57:40;;;;;;;;;;;;;;;0.48;72.30;98720.63;1671340;82;26074;-85
2021/01/10 05:00:27;;;;;;;;;;;;;;;0.35;72.33;98721.36;1687772;82;24673;-84
2021/01/10 05:03:16;;;;;;;;;;;;;;;0.42;72.35;98726.78;1667329;85;20412;-84
2021/01/10 05:06:01;;;;;;;;;;;;;;;0.48;72.35;98724.49;1704838;82;24702;-84
2021/01/10 05:08:47;;;;;;;;;;;;;;;0.54;72.37;98729.49;1704822;82;22239;-84
2021/01/10 05:11:35;;;;;;;;;;;;;;;0.64;72.39;98725.80;1708048;82;26311;-84
2021/01/10 05:14:21;;;;;;;;;;;;;;;0.68;72.41;98735.13;1694664;82;25722;-84
2021/01/10 05:17:07;;;;;;;;;;;;;;;0.73;72.45;98733.28;1709134;82;20285;-84
2021/01/10 05:19:53;;;;;;;;;;;;;;;0.75;72.47;98733.66;1668456;85;25807;-84
2021/01/10 05:22:39;;;;;;;;;;;;;;;0.80;72.48;98738.25;1701244;82;22230;-84
2021/01/10 05:25:25;;;;;;;;;;;;;;;0.79;72.51;98738.27;1694356;82;26153;-84
2021/01/10 05:28:11;;;;;;;;;;;;;;;0.80;72.49;98737.39;1698009;82;24631;-84
2021/01/10 05:30:57;;;;;;;;;;;;;;;0.78;72.49;98736.14;1711218;82;20272;-85
2021/01/10 05:33:43;;;;;;;;;;;;;;;0.75;72.45;98738.80;1668924;83;24707;-84
2021/01/10 05:36:29;;;;;;;;;;;;;;;0.75;72.43;98737.96;1672088;85;22067;-85
2021/01/10 05:39:16;;;;;;;;;;;;;;;0.67;72.43;98738.58;1665985;85;27160;-84
2021/01/10 05:42:02;;;;;;;;;;;;;;;0.55;72.39;98738.44;1638321;86;24845;-84
2021/01/10 05:44:48;;;;;;;;;;;;;;;0.50;72.40;98738.16;1707086;83;20548;-84
2021/01/10 05:47:35;;;;;;;;;;;;;;;0.45;72.37;98738.27;1708489;83;24850;-84
2021/01/10 05:50:21;;;;;;;;;;;;;;;0.40;72.37;98742.25;1705429;83;22150;-84
2021/01/10 05:53:07;;;;;;;;;;;;;;;0.30;72.34;98739.50;1706589;83;26239;-84
2021/01/10 05:55:54;;;;;;;;;;;;;;;0.20;72.33;98743.61;1706306;83;24844;-84
2021/01/10 05:58:39;;;;;;;;;;;;;;;0.24;72.30;98735.78;1705278;83;20553;-84
2021/01/10 06:01:26;;;;;;;;;;;;;;;0.30;72.30;98742.52;1705800;83;25467;-84
2021/01/10 06:04:12;;;;;;;;;;;;;;;0.10;72.31;98746.84;1708504;83;22108;-84
2021/01/10 06:06:59;;;;;;;;;;;;;;;0.00;72.29;98753.09;1707272;83;26406;-84
2021/01/10 06:09:45;;;;;;;;;;;;;;;0.06;72.27;98752.07;1708108;83;24852;-84
2021/01/10 06:12:31;;;;;;;;;;;;;;;0.12;72.26;98760.50;1707850;83;20269;-83
2021/01/10 06:15:17;;;;;;;;;;;;;;;0.19;72.26;98754.78;1706104;83;24706;-84
2021/01/10 06:18:04;;;;;;;;;;;;;;;0.27;72.25;98756.28;1706567;83;22224;-84
2021/01/10 06:20:50;;;;;;;;;;;;;;;0.30;72.28;98756.23;1705096;83;27071;-84
2021/01/10 06:23:37;;;;;;;;;;;;;;;0.32;72.28;98757.05;1706272;83;24693;-84
2021/01/10 06:26:24;;;;;;;;;;;;;;;0.30;72.28;98760.09;1707488;83;20340;-84
2021/01/10 06:29:10;;;;;;;;;;;;;;;0.24;72.27;98767.10;1704870;83;24607;-84
2021/01/10 06:31:55;;;;;;;;;;;;;;;0.12;72.23;98774.66;1707231;83;22149;-84
2021/01/10 06:34:41;;;;;;;;;;;;;;;-0.11;72.21;98767.44;1697705;82;27276;-84
2021/01/10 06:37:28;;;;;;;;;;;;;;;-0.25;72.15;98774.63;1688938;84;24739;-84
2021/01/10 06:40:14;;;;;;;;;;;;;;;-0.15;72.11;98776.55;1691429;84;20277;-84
2021/01/10 06:43:00;;;;;;;;;;;;;;;-0.12;72.09;98785.07;1693577;84;24656;-84
2021/01/10 06:45:46;;;;;;;;;;;;;;;-0.13;72.08;98782.08;1692293;83;23052;-85
2021/01/10 06:48:32;;;;;;;;;;;;;;;-0.14;72.06;98784.67;1688627;84;26356;-84
2021/01/10 06:51:18;;;;;;;;;;;;;;;-0.09;72.07;98785.42;1690890;84;24674;-84
2021/01/10 06:53:51;;;;;;;;;;;;;;;-0.12;72.09;98786.79;1691462;83;20378;-84
2021/01/10 06:56:38;;;;;;;;;;;;;;;-0.20;72.07;98788.23;1695423;84;25102;-84
2021/01/10 06:59:24;;;;;;;;;;;;;;;-0.20;72.05;98788.66;1692338;83;22153;-84
2021/01/10 07:02:10;;;;;;;;;;;;;;;-0.28;72.05;98790.13;1682023;84;26395;-83
2021/01/10 07:04:57;;;;;;;;;;;;;;;-0.27;72.05;98783.27;1689862;84;24474;-85
2021/01/10 07:07:43;;;;;;;;;;;;;;;-0.39;72.05;98788.22;1717420;82;20702;-84
2021/01/10 07:10:29;;;;;;;;;;;;;;;-0.48;72.05;98790.52;1692778;84;24693;-85
2021/01/10 07:13:15;;;;;;;;;;;;;;;-0.37;72.07;98785.59;1692693;84;22368;-84
2021/01/10 07:16:01;;;;;;;;;;;;;;;-0.23;72.07;98785.73;1690796;84;26208;-84
2021/01/10 07:18:48;;;;;;;;;;;;;;;-0.19;72.10;98786.50;1691188;83;24584;-84
2021/01/10 07:21:35;;;;;;;;;;;;;;;-0.11;72.13;98784.16;1691465;84;20404;-85
2021/01/10 07:24:22;;;;;;;;;;;;;;;-0.03;72.16;98790.44;1690353;84;24805;-84
2021/01/10 07:27:08;;;;;;;;;;;;;;;0.02;72.19;98790.33;1691290;83;23265;-84
2021/01/10 07:29:54;;;;;;;;;;;;;;;0.06;72.22;98793.23;1691481;84;26211;-85
2021/01/10 07:32:39;;;;;;;;;;;;;;;0.04;72.21;98797.59;1690807;83;24598;-85
2021/01/10 07:35:26;;;;;;;;;;;;;;;-0.04;72.24;98795.17;1729345;82;20294;-85
2021/01/10 07:38:12;;;;;;;;;;;;;;;-0.04;72.24;98792.60;1732312;82;24767;-85
2021/01/10 07:40:58;;;;;;;;;;;;;;;-0.21;72.21;98794.25;1734947;81;22367;-85
2021/01/10 07:43:44;;;;;;;;;;;;;;;-0.30;72.19;98800.03;1703589;83;26137;-85
2021/01/10 07:46:30;;;;;;;;;;;;;;;-0.35;72.12;98803.13;1670878;85;24610;-85
2021/01/10 07:49:16;;;;;;;;;;;;;;;-0.40;72.09;98808.38;1701953;84;20490;-85
2021/01/10 07:52:02;;;;;;;;;;;;;;;-0.44;72.06;98812.70;1699611;83;24802;-85
2021/01/10 07:54:49;;;;;;;;;;;;;;;-0.45;72.03;98805.05;1702217;84;22128;-85
2021/01/10 07:57:36;;;;;;;;;;;;;;;-0.44;72.02;98811.42;1703733;84;26122;-85
2021/01/10 08:00:27;;;;;;;;;;;;;;;-0.46;71.99;98812.34;1673084;84;24695;-85
2021/01/10 08:03:15;;;;;;;;;;;;;;;-0.46;71.99;98813.20;1737281;82;20713;-85
2021/01/10 08:06:00;;;;;;;;;;;;;;;-0.40;71.99;98812.23;1667364;85;24739;-85
2021/01/10 08:08:48;;;;;;;;;;;;;;;-0.36;72.00;98815.14;1669331;84;22179;-85
2021/01/10 08:11:36;;;;;;;;;;;;;;;-0.34;72.00;98809.97;1737675;82;26134;-85
2021/01/10 08:14:21;;;;;;;;;;;;;;;-0.35;72.01;98823.70;1738481;82;24846;-85
2021/01/10 08:17:07;;;;;;;;;;;;;;;-0.45;71.99;98825.18;1734682;82;20314;-85
2021/01/10 08:19:54;;;;;;;;;;;;;;;-0.49;71.95;98827.37;1736171;81;24766;-85
2021/01/10 08:22:39;;;;;;;;;;;;;;;-0.51;71.93;98822.72;1737695;82;22940;-85
2021/01/10 08:25:13;;;;;;;;;;;;;;;-0.50;71.93;98823.14;1736126;82;26188;-85
2021/01/10 08:28:00;;;;;;;;;;;;;;;-0.46;71.90;98824.77;1740001;82;24565;-85
2021/01/10 08:30:50;;;;;;;;;;;;;;;-0.41;71.91;98831.09;1734302;82;20383;-85
2021/01/10 08:33:39;;;;;;;;;;;;;;;-0.43;71.90;98833.69;1736902;81;24651;-86
2021/01/10 08:36:18;;;;;;;;;;;;;;;-0.39;71.92;98832.36;1705833;82;22406;-85
2021/01/10 08:39:05;;;;;;;;;;;;;;;-0.34;71.91;98832.67;1705274;82;26237;-86
2021/01/10 08:41:51;;;;;;;;;;;;;;;-0.26;71.92;98838.94;1710239;82;24629;-85
2021/01/10 08:44:41;;;;;;;;;;;;;;;-0.19;71.95;98838.79;1701352;82;20465;-86
2021/01/10 08:47:27;;;;;;;;;;;;;;;-0.11;71.97;98829.17;1701885;82;24711;-86
2021/01/10 08:50:14;;;;;;;;;;;;;;;-0.08;71.97;98836.00;1690707;82;22274;-86
2021/01/10 08:53:01;;;;;;;;;;;;;;;0.00;71.97;98837.98;1669742;82;26124;-85
2021/01/10 08:55:47;;;;;;;;;;;;;;;0.11;71.99;98837.75;1717206;82;25752;-85
2021/01/10 08:58:33;;;;;;;;;;;;;;;0.18;72.02;98837.56;1660200;85;20499;-86
2021/01/10 09:01:20;;;;;;;;;;;;;;;0.15;72.02;98841.51;1668900;82;24756;-85
2021/01/10 09:04:06;;;;;;;;;;;;;;;0.15;72.01;98841.51;1669729;85;22989;-85
2021/01/10 09:06:53;;;;;;;;;;;;;;;0.11;71.97;98845.00;1670674;85;27155;-85
2021/01/10 09:09:39;;;;;;;;;;;;;;;0.07;71.95;98842.53;1673506;82;24808;-85
2021/01/10 09:12:26;;;;;;;;;;;;;;;0.08;71.93;98838.66;1663183;85;20355;-85
2021/01/10 09:15:13;;;;;;;;;;;;;;;0.15;71.90;98843.23;1671096;83;25556;-85
2021/01/10 09:17:59;;;;;;;;;;;;;;;0.19;71.87;98846.14;1708440;82;22206;-85
2021/01/10 09:20:46;;;;;;;;;;;;;;;0.24;71.87;98846.88;1675554;82;26151;-85
2021/01/10 09:23:32;;;;;;;;;;;;;;;0.29;71.88;98849.76;1681891;82;24604;-85
2021/01/10 09:26:18;;;;;;;;;;;;;;;0.38;71.88;98846.16;1667291;85;20394;-85
2021/01/10 09:29:04;;;;;;;;;;;;;;;0.39;71.90;98845.25;1669573;85;25807;-85
2021/01/10 09:31:50;;;;;;;;;;;;;;;0.46;71.88;98850.67;1665376;85;21532;-85
2021/01/10 09:34:36;;;;;;;;;;;;;;;0.48;71.90;98847.64;1672256;82;27142;-85
2021/01/10 09:37:24;;;;;;;;;;;;;;;0.56;71.88;98852.59;1688917;84;25474;-85
2021/01/10 09:40:10;;;;;;;;;;;;;;;0.60;71.88;98853.77;1687940;84;20272;-85
2021/01/10 09:42:58;;;;;;;;;;;;;;;0.63;71.88;98852.86;1691588;84;24672;-85
2021/01/10 09:45:44;;;;;;;;;;;;;;;0.71;71.88;98850.50;1694052;83;22127;-84
2021/01/10 09:48:30;;;;;;;;;;;;;;;0.76;71.85;98852.98;1690853;84;26141;-84
2021/01/10 09:51:17;;;;;;;;;;;;;;;0.90;71.83;98846.20;1692667;84;25491;-84
2021/01/10 09:54:03;;;;;;;;;;;;;;;0.91;71.82;98843.59;1692320;84;20300;-84
2021/01/10 09:56:49;;;;;;;;;;;;;;;0.95;71.81;98839.20;1687738;83;24878;-85
2021/01/10 09:59:35;;;;;;;;;;;;;;;1.10;71.77;98837.52;1690893;83;22158;-85
2021/01/10 10:02:22;;;;;;;;;;;;;;;1.18;71.76;98839.03;1692637;84;26211;-85
2021/01/10 10:05:08;;;;;;;;;;;;;;;1.24;71.73;98831.14;1691699;84;24688;-85
2021/01/10 10:07:54;;;;;;;;;;;;;;;1.25;71.68;98826.37;1693814;84;20273;-85
2021/01/10 10:10:43;;;;;;;;;;;;;;;1.28;71.61;98824.61;1687919;84;24923;-84
2021/01/10 10:13:31;;;;;;;;;;;;;;;1.24;71.52;98823.41;1691926;83;22119;-85
2021/01/10 10:16:20;;;;;;;;;;;;;;;1.19;71.40;98817.97;1668975;84;26591;-84
2021/01/10 10:19:06;;;;;;;;;;;;;;;1.18;71.29;98820.14;1691356;84;24701;-85
2021/01/10 10:21:52;;;;;;;;;;;;;;;1.16;71.19;98812.88;1695472;84;20182;-84
2021/01/10 10:24:38;;;;;;;;;;;;;;;1.20;71.08;98808.08;1690686;83;24701;-84
2021/01/10 10:27:24;;;;;;;;;;;;;;;1.20;70.99;98809.36;1693308;83;22313;-84
2021/01/10 10:30:11;;;;;;;;;;;;;;;1.21;70.92;98799.42;1690081;84;26197;-84
2021/01/10 10:32:58;;;;;;;;;;;;;;;1.30;70.84;98802.22;1687646;84;24621;-84
2021/01/10 10:35:47;;;;;;;;;;;;;;;1.33;70.77;98795.24;1717088;82;20637;-84
2021/01/10 10:38:34;;;;;;;;;;;;;;;1.31;70.68;98793.61;1737796;81;24906;-84
2021/01/10 10:41:20;;;;;;;;;;;;;;;1.31;70.63;98793.14;1742729;82;22090;-85
2021/01/10 10:44:07;;;;;;;;;;;;;;;1.34;70.57;98788.36;1741168;82;26131;-84
2021/01/10 10:46:53;;;;;;;;;;;;;;;1.39;70.48;98783.91;1738568;82;24703;-84
2021/01/10 10:49:39;;;;;;;;;;;;;;;1.41;70.39;98786.02;1742785;80;20187;-84
2021/01/10 10:52:25;;;;;;;;;;;;;;;1.42;70.34;98783.38;1742253;81;24756;-84
2021/01/10 10:55:12;;;;;;;;;;;;;;;1.47;70.26;98781.55;1739899;82;22123;-84
2021/01/10 11:00:57;;;;;;;;;;;;;;;1.58;70.13;98779.95;1708311;82;24773;-84
2021/01/10 11:03:43;;;;;;;;;;;;;;;1.65;70.06;98779.72;1693560;82;20354;-84
2021/01/10 11:06:29;;;;;;;;;;;;;;;1.75;70.01;98783.31;1688048;82;24694;-84
2021/01/10 11:09:15;;;;;;;;;;;;;;;1.83;69.95;98786.09;1701363;82;22222;-84
2021/01/10 11:12:01;;;;;;;;;;;;;;;1.82;69.90;98783.10;1702408;82;26228;-85
2021/01/10 11:14:47;;;;;;;;;;;;;;;1.74;69.82;98778.62;1685642;82;24297;-86
2021/01/10 11:17:33;;;;;;;;;;;;;;;1.74;69.74;98777.34;1698791;82;20435;-85
2021/01/10 11:20:20;;;;;;;;;;;;;;;1.82;69.66;98774.52;1702164;82;24866;-85
2021/01/10 11:23:07;;;;;;;;;;;;;;;1.87;69.59;98771.34;1663988;84;23068;-85
2021/01/10 11:25:54;;;;;;;;;;;;;;;1.89;69.50;98767.84;1686890;83;26193;-85
2021/01/10 11:28:40;;;;;;;;;;;;;;;1.96;69.39;98768.52;1685260;83;24636;-85
2021/01/10 11:31:26;;;;;;;;;;;;;;;2.02;69.32;98766.56;1682427;84;20347;-85
2021/01/10 11:34:13;;;;;;;;;;;;;;;2.01;69.25;98762.77;1685581;84;24825;-86
2021/01/10 11:36:59;;;;;;;;;;;;;;;2.09;69.20;98765.50;1685210;84;22104;-85
2021/01/10 11:39:45;;;;;;;;;;;;;;;2.12;69.12;98767.61;1684870;84;27214;-85
2021/01/10 11:42:31;;;;;;;;;;;;;;;2.09;69.02;98756.91;1686388;84;24438;-86
2021/01/10 11:45:18;;;;;;;;;;;;;;;2.12;68.90;98763.73;1695583;82;20409;-86
2021/01/10 11:48:04;;;;;;;;;;;;;;;2.16;68.81;98762.73;1691587;82;24575;-86
2021/01/10 11:50:51;;;;;;;;;;;;;;;2.28;68.72;98770.11;1686883;82;23102;-86
2021/01/10 11:53:36;;;;;;;;;;;;;;;2.32;68.66;98764.80;1695733;82;26419;-86
2021/01/10 11:56:10;;;;;;;;;;;;;;;2.34;68.56;98763.02;1695547;82;25557;-86
2021/01/10 11:58:57;;;;;;;;;;;;;;;2.41;68.48;98763.64;1703001;81;20329;-86
2021/01/10 12:01:42;;;;;;;;;;;;;;;2.37;68.39;98766.78;1728592;82;24711;-86
2021/01/10 12:04:29;;;;;;;;;;;;;;;2.38;68.30;98764.61;1728642;82;22969;-86
2021/01/10 12:07:18;;;;;;;;;;;;;;;2.41;68.20;98761.06;1722626;82;26249;-86
2021/01/10 12:10:04;;;;;;;;;;;;;;;2.47;68.12;98759.13;1733805;82;24634;-86
2021/01/10 12:12:52;;;;;;;;;;;;;;;2.45;68.01;98763.52;1725707;82;20590;-86
2021/01/10 12:15:38;;;;;;;;;;;;;;;2.47;67.92;98755.70;1729242;81;24811;-86
2021/01/10 12:18:25;;;;;;;;;;;;;;;2.45;67.81;98756.22;1726075;82;22174;-86
2021/01/10 12:21:11;;;;;;;;;;;;;;;2.45;67.70;98748.47;1730346;82;26121;-86
2021/01/10 12:23:58;;;;;;;;;;;;;;;2.50;67.60;98744.84;1729831;82;24656;-86
2021/01/10 12:26:45;;;;;;;;;;;;;;;2.58;67.52;98748.45;1727135;82;20640;-86
2021/01/10 12:29:31;;;;;;;;;;;;;;;2.58;67.40;98743.73;1733478;82;24789;-86
2021/01/10 12:32:21;;;;;;;;;;;;;;;2.59;67.27;98742.40;1728146;82;22250;-86
2021/01/10 12:35:08;;;;;;;;;;;;;;;2.61;67.19;98743.20;1723259;82;26105;-86
2021/01/10 12:37:59;;;;;;;;;;;;;;;2.62;67.09;98746.64;1725929;82;25701;-86
2021/01/10 12:40:45;;;;;;;;;;;;;;;2.64;67.01;98744.37;1729087;82;20365;-86
2021/01/10 12:43:31;;;;;;;;;;;;;;;2.60;66.92;98747.97;1731220;82;24757;-85
2021/01/10 12:46:17;;;;;;;;;;;;;;;2.60;66.82;98740.66;1729337;82;23062;-86
2021/01/10 12:49:04;;;;;;;;;;;;;;;2.63;66.74;98731.06;1726345;82;26202;-86
2021/01/10 12:51:50;;;;;;;;;;;;;;;2.59;66.65;98733.36;1721013;82;24669;-86
2021/01/10 12:54:37;;;;;;;;;;;;;;;2.62;66.57;98733.72;1730297;82;20342;-86
2021/01/10 12:57:22;;;;;;;;;;;;;;;2.65;66.49;98735.73;1724928;82;24761;-86
2021/01/10 13:00:09;;;;;;;;;;;;;;;2.69;66.40;98728.28;1720634;82;22204;-86
2021/01/10 13:02:57;;;;;;;;;;;;;;;2.75;66.34;98728.52;1730947;82;26148;-86
2021/01/10 13:05:43;;;;;;;;;;;;;;;2.68;66.26;98729.16;1729771;82;24625;-86
2021/01/10 13:08:33;;;;;;;;;;;;;;;2.61;66.16;98729.44;1722000;82;20558;-86
2021/01/10 13:11:19;;;;;;;;;;;;;;;2.60;66.08;98735.50;1733053;82;24757;-86
2021/01/10 13:14:05;;;;;;;;;;;;;;;2.64;66.00;98735.78;1730377;82;20585;-86
2021/01/10 13:16:53;;;;;;;;;;;;;;;2.67;65.92;98731.38;1689215;84;27185;-86
2021/01/10 13:19:42;;;;;;;;;;;;;;;2.60;65.83;98727.30;1689786;84;24654;-86
2021/01/10 13:22:28;;;;;;;;;;;;;;;2.60;65.71;98730.33;1689979;84;20494;-86
2021/01/10 13:25:14;;;;;;;;;;;;;;;2.55;65.57;98726.61;1689486;84;24788;-86
2021/01/10 13:28:00;;;;;;;;;;;;;;;2.52;65.45;98733.15;1688325;84;21447;-86
2021/01/10 13:30:45;;;;;;;;;;;;;;;2.55;65.32;98726.61;1684893;84;26171;-86
2021/01/10 13:33:32;;;;;;;;;;;;;;;2.52;65.20;98723.66;1673583;84;24641;-86
2021/01/10 13:36:18;;;;;;;;;;;;;;;2.51;65.11;98730.16;1684891;84;20623;-87
2021/01/10 13:39:04;;;;;;;;;;;;;;;2.54;64.97;98730.08;1696014;84;24643;-87
2021/01/10 13:41:50;;;;;;;;;;;;;;;2.66;64.86;98724.96;1685709;84;22145;-86
2021/01/10 13:44:37;;;;;;;;;;;;;;;2.70;64.80;98737.72;1693630;84;26391;-86
2021/01/10 13:47:24;;;;;;;;;;;;;;;2.74;64.69;98735.87;1685558;84;24017;-86
2021/01/10 13:50:11;;;;;;;;;;;;;;;2.77;64.58;98737.08;1684619;84;20344;-86
2021/01/10 13:52:57;;;;;;;;;;;;;;;2.79;64.50;98734.81;1689451;84;24706;-86
2021/01/10 13:55:43;;;;;;;;;;;;;;;2.80;64.42;98733.93;1682592;84;22199;-86
2021/01/10 13:58:33;;;;;;;;;;;;;;;2.80;64.32;98739.09;1692753;84;26381;-86
2021/01/10 14:01:23;;;;;;;;;;;;;;;2.82;64.23;98732.14;1685451;83;24641;-85
2021/01/10 14:04:09;;;;;;;;;;;;;;;2.88;64.16;98735.82;1683843;83;20270;-86
2021/01/10 14:06:55;;;;;;;;;;;;;;;2.75;64.09;98728.52;1685466;85;24700;-86
2021/01/10 14:09:41;;;;;;;;;;;;;;;2.44;64.00;98728.70;1705581;82;22132;-86
2021/01/10 14:12:26;;;;;;;;;;;;;;;2.32;63.89;98729.09;1703935;81;26048;-86
2021/01/10 14:15:13;;;;;;;;;;;;;;;2.43;63.82;98728.30;1700290;82;25562;-86
2021/01/10 14:17:59;;;;;;;;;;;;;;;2.55;63.75;98730.48;1702761;82;20422;-85
2021/01/10 14:20:45;;;;;;;;;;;;;;;2.66;63.73;98722.38;1708202;82;24718;-86
2021/01/10 14:23:31;;;;;;;;;;;;;;;2.70;63.72;98726.54;1701696;82;23060;-86
2021/01/10 14:26:17;;;;;;;;;;;;;;;2.56;63.70;98730.05;1699150;82;26344;-86
2021/01/10 14:29:03;;;;;;;;;;;;;;;2.52;63.65;98730.56;1700568;82;25549;-86
2021/01/10 14:31:49;;;;;;;;;;;;;;;2.56;63.61;98734.77;1699588;82;20411;-86
2021/01/10 14:34:35;;;;;;;;;;;;;;;2.61;63.59;98735.89;1696871;82;25550;-85
2021/01/10 14:37:22;;;;;;;;;;;;;;;2.68;63.57;98742.53;1708497;82;22364;-86